Time;durP1;ratioP1;P1;durP2;ratioP2;P2;SDS_P1;SDS_P2;PMS_P1;PMS_P2;Temp;Humidity;BMP_temperature;BMP_pressure;BME280_temperature;BME280_humidity;BME280_pressure;Samples;Min_cycle;Max_cycle;Signal;HPM_P1;HPM_P2
2021/05/04 00:02:10;;;;;;;17.70;3.77;;;20.60;63.70;;;;;;5068549;28;20191;-70
2021/05/04 00:04:36;;;;;;;24.93;4.40;;;20.50;64.00;;;;;;5064729;28;20183;-67
2021/05/04 00:07:02;;;;;;;22.80;4.53;;;20.40;64.10;;;;;;5067913;28;20243;-67
2021/05/04 00:09:29;;;;;;;24.93;5.07;;;20.30;64.50;;;;;;5064763;28;20291;-68
2021/05/04 00:11:56;;;;;;;24.63;3.93;;;20.30;64.60;;;;;;5062395;28;20199;-67
2021/05/04 00:14:22;;;;;;;23.57;4.47;;;20.30;64.40;;;;;;5068461;28;20233;-66
2021/05/04 00:16:49;;;;;;;20.03;4.57;;;20.40;63.90;;;;;;5064330;28;20260;-66
2021/05/04 00:19:15;;;;;;;19.13;3.97;;;20.50;63.50;;;;;;5065478;28;20198;-66
2021/05/04 00:21:42;;;;;;;19.93;4.20;;;20.70;63.70;;;;;;5065816;28;20700;-66
2021/05/04 00:24:09;;;;;;;20.00;4.43;;;20.60;63.10;;;;;;5063666;28;20180;-67
2021/05/04 00:26:35;;;;;;;25.00;4.37;;;20.60;62.90;;;;;;5065722;28;20190;-64
2021/05/04 00:29:02;;;;;;;24.23;4.93;;;20.60;62.50;;;;;;5063621;28;20187;-66
2021/05/04 00:31:28;;;;;;;22.50;4.10;;;20.60;62.70;;;;;;5064671;28;20270;-70
2021/05/04 00:33:55;;;;;;;29.50;4.47;;;20.50;62.60;;;;;;5067386;28;20222;-68
2021/05/04 00:36:21;;;;;;;19.70;4.23;;;20.50;62.50;;;;;;5078266;28;20713;-65
2021/05/04 00:38:48;;;;;;;19.27;4.90;;;20.30;63.00;;;;;;5065678;28;20210;-69
2021/05/04 00:41:14;;;;;;;13.20;3.53;;;20.20;63.40;;;;;;5066038;28;20198;-69
2021/05/04 00:43:41;;;;;;;14.57;4.00;;;20.20;63.30;;;;;;5065439;28;20191;-69
2021/05/04 00:46:08;;;;;;;20.80;4.43;;;20.20;63.40;;;;;;5063504;28;20183;-70
2021/05/04 00:48:34;;;;;;;18.00;4.33;;;20.20;63.40;;;;;;5061627;28;20184;-67
2021/05/04 00:51:04;;;;;;;20.37;4.13;;;20.20;63.70;;;;;;5062511;28;20214;-69
2021/05/04 00:53:31;;;;;;;17.93;4.00;;;20.30;62.50;;;;;;5062878;28;20205;-68
2021/05/04 00:56:03;;;;;;;19.07;4.33;;;20.50;62.10;;;;;;5067129;28;20262;-67
2021/05/04 00:58:34;;;;;;;16.13;3.93;;;20.50;62.70;;;;;;5061200;28;20226;-68
2021/05/04 01:01:02;;;;;;;31.30;4.27;;;20.50;62.40;;;;;;5063864;28;20260;-68
2021/05/04 01:03:29;;;;;;;16.77;3.93;;;20.50;62.00;;;;;;5064407;28;20738;-65
2021/05/04 01:05:55;;;;;;;19.80;4.00;;;20.60;61.90;;;;;;5065534;28;20713;-66
2021/05/04 01:08:21;;;;;;;12.07;3.83;;;20.60;61.70;;;;;;5063927;28;20198;-65
2021/05/04 01:10:48;;;;;;;22.23;4.70;;;20.60;61.10;;;;;;5064543;28;20190;-66
2021/05/04 01:13:14;;;;;;;21.37;3.93;;;20.70;61.40;;;;;;5065400;28;20214;-68
2021/05/04 01:15:42;;;;;;;13.43;3.80;;;20.70;61.30;;;;;;5066829;28;20202;-67
2021/05/04 01:18:08;;;;;;;19.70;4.10;;;20.60;61.60;;;;;;5062305;28;20306;-67
2021/05/04 01:20:37;;;;;;;23.70;3.93;;;20.40;61.70;;;;;;5061675;28;20195;-66
2021/05/04 01:23:05;;;;;;;18.07;3.97;;;20.40;61.60;;;;;;5060525;28;20186;-68
2021/05/04 01:25:31;;;;;;;18.37;4.17;;;20.40;60.50;;;;;;5064525;28;20293;-66
2021/05/04 01:27:58;;;;;;;19.33;3.70;;;20.50;61.50;;;;;;5063452;28;20191;-68
2021/05/04 01:30:24;;;;;;;21.23;4.27;;;20.50;59.60;;;;;;5062074;28;20271;-64
2021/05/04 01:32:51;;;;;;;14.07;3.67;;;20.70;59.90;;;;;;5059716;28;20179;-66
2021/05/04 01:35:17;;;;;;;14.90;4.20;;;20.70;59.70;;;;;;5062192;28;20454;-66
2021/05/04 01:37:45;;;;;;;25.20;4.17;;;20.60;60.10;;;;;;5063409;28;20225;-67
2021/05/04 01:40:14;;;;;;;23.07;3.77;;;20.60;60.10;;;;;;5063908;28;20651;-66
2021/05/04 01:42:44;;;;;;;21.80;3.97;;;20.60;61.20;;;;;;5065360;28;20183;-65
2021/05/04 01:45:15;;;;;;;20.80;4.20;;;20.50;60.40;;;;;;5064259;28;20186;-69
2021/05/04 01:47:42;;;;;;;13.33;3.83;;;20.40;60.30;;;;;;5063299;28;20186;-68
2021/05/04 01:50:11;;;;;;;24.13;4.73;;;20.40;60.00;;;;;;5062522;28;20532;-69
2021/05/04 01:52:37;;;;;;;17.50;3.23;;;20.40;59.00;;;;;;5068532;28;20183;-67
2021/05/04 01:55:05;;;;;;;20.87;4.63;;;20.60;58.20;;;;;;5063961;28;20210;-67
2021/05/04 01:57:32;;;;;;;17.40;3.90;;;20.70;58.10;;;;;;5061543;28;20234;-67
2021/05/04 01:59:58;;;;;;;23.37;3.83;;;20.80;58.70;;;;;;5062970;28;20270;-66
2021/05/04 02:02:24;;;;;;;23.30;4.33;;;20.70;58.30;;;;;;5061311;28;20186;-66
2021/05/04 02:04:54;;;;;;;19.60;4.07;;;20.70;59.20;;;;;;5060068;28;20183;-66
2021/05/04 02:07:21;;;;;;;21.00;4.23;;;20.60;59.40;;;;;;5061707;28;20191;-67
2021/05/04 02:09:47;;;;;;;25.17;4.27;;;20.50;60.10;;;;;;5057431;28;20250;-66
2021/05/04 02:12:14;;;;;;;23.17;3.83;;;20.40;58.80;;;;;;5064101;28;20222;-67
2021/05/04 02:14:40;;;;;;;25.87;4.47;;;20.50;59.30;;;;;;5063602;28;20198;-68
2021/05/04 02:17:07;;;;;;;22.30;4.50;;;20.60;57.30;;;;;;5060033;28;20324;-67
2021/05/04 02:19:33;;;;;;;19.03;4.13;;;20.80;57.10;;;;;;5077662;28;20191;-67
2021/05/04 02:22:00;;;;;;;16.80;4.53;;;20.90;57.20;;;;;;5063325;28;20187;-65
2021/05/04 02:24:26;;;;;;;23.23;4.30;;;20.90;56.80;;;;;;5062520;28;20175;-65
2021/05/04 02:26:52;;;;;;;22.20;4.80;;;20.90;57.60;;;;;;5060570;28;20191;-67
2021/05/04 02:29:19;;;;;;;19.57;4.07;;;21.00;57.10;;;;;;5058934;28;20558;-66
2021/05/04 02:31:45;;;;;;;20.30;4.40;;;21.00;56.50;;;;;;5059240;28;20193;-67
2021/05/04 02:34:11;;;;;;;25.57;4.97;;;21.10;56.40;;;;;;5059607;28;20195;-66
2021/05/04 02:36:38;;;;;;;28.60;4.50;;;21.00;56.50;;;;;;5057939;28;20203;-66
2021/05/04 02:39:07;;;;;;;29.60;4.80;;;21.00;56.80;;;;;;5062069;28;20253;-67
2021/05/04 02:41:34;;;;;;;44.30;5.90;;;21.00;57.60;;;;;;5061751;28;20202;-67
2021/05/04 02:44:02;;;;;;;30.90;4.87;;;20.90;57.90;;;;;;5059916;28;20192;-70
2021/05/04 02:46:29;;;;;;;30.00;4.70;;;20.90;58.00;;;;;;5070708;28;20187;-68
2021/05/04 02:48:59;;;;;;;25.03;4.63;;;20.90;58.00;;;;;;5062707;28;20225;-67
2021/05/04 02:51:25;;;;;;;23.60;4.93;;;20.90;57.80;;;;;;5064142;28;20202;-67
2021/05/04 02:53:52;;;;;;;30.90;4.57;;;20.90;58.00;;;;;;5061804;28;20220;-66
2021/05/04 02:56:19;;;;;;;19.53;4.53;;;20.80;58.50;;;;;;5055493;28;20223;-67
2021/05/04 02:58:45;;;;;;;23.93;5.30;;;20.90;57.50;;;;;;5043866;28;20216;-68
2021/05/04 03:01:12;;;;;;;22.70;4.70;;;20.90;58.50;;;;;;5060617;28;20194;-70
2021/05/04 03:03:40;;;;;;;25.37;5.33;;;21.00;58.70;;;;;;5059335;28;20179;-68
2021/05/04 03:06:07;;;;;;;22.33;4.40;;;21.00;58.40;;;;;;5061662;28;20189;-68
2021/05/04 03:08:33;;;;;;;16.20;4.13;;;21.00;58.20;;;;;;5060215;28;20183;-67
2021/05/04 03:11:00;;;;;;;26.10;4.40;;;21.00;57.90;;;;;;5061260;28;20373;-69
2021/05/04 03:13:29;;;;;;;18.33;4.87;;;21.10;57.60;;;;;;5061486;28;20695;-68
2021/05/04 03:15:56;;;;;;;20.40;3.80;;;21.10;58.30;;;;;;5062477;28;20674;-69
2021/05/04 03:18:23;;;;;;;26.07;4.47;;;21.10;58.50;;;;;;5061600;28;20239;-68
2021/05/04 03:20:51;;;;;;;22.73;5.30;;;21.10;59.80;;;;;;5062787;28;20194;-68
2021/05/04 03:23:19;;;;;;;22.17;4.03;;;21.10;59.40;;;;;;5061069;28;20789;-68
2021/05/04 03:25:46;;;;;;;13.27;4.30;;;21.10;58.80;;;;;;5063431;28;20660;-68
2021/05/04 03:28:14;;;;;;;17.83;4.60;;;21.20;58.60;;;;;;5050184;28;20781;-68
2021/05/04 03:30:41;;;;;;;21.33;4.43;;;21.30;59.60;;;;;;5064134;28;20199;-71
2021/05/04 03:33:08;;;;;;;21.23;4.30;;;21.30;60.30;;;;;;5067839;28;20183;-66
2021/05/04 03:35:35;;;;;;;21.00;4.77;;;21.30;60.50;;;;;;5066662;28;20268;-68
2021/05/04 03:38:03;;;;;;;25.90;4.57;;;21.20;60.80;;;;;;5065074;28;20211;-66
2021/05/04 03:40:31;;;;;;;22.83;4.53;;;21.20;61.30;;;;;;5060645;28;20182;-68
2021/05/04 03:42:59;;;;;;;21.67;4.13;;;21.30;61.50;;;;;;5067142;28;20175;-67
2021/05/04 03:45:25;;;;;;;24.10;4.90;;;21.40;61.60;;;;;;5067269;28;20222;-67
2021/05/04 03:47:52;;;;;;;30.50;5.20;;;21.40;61.90;;;;;;5049562;28;20191;-66
2021/05/04 03:50:22;;;;;;;18.73;4.10;;;21.40;62.60;;;;;;5067640;28;20192;-66
2021/05/04 03:52:51;;;;;;;27.83;5.20;;;21.40;63.20;;;;;;5057872;28;20193;-68
2021/05/04 03:55:18;;;;;;;16.30;4.57;;;21.40;63.20;;;;;;5066110;28;20187;-67
2021/05/04 03:57:44;;;;;;;26.77;4.83;;;21.50;63.50;;;;;;5064084;28;20237;-67
2021/05/04 04:00:13;;;;;;;29.27;4.20;;;21.50;64.00;;;;;;5065824;28;20184;-68
2021/05/04 04:02:40;;;;;;;31.67;5.10;;;21.50;64.40;;;;;;5064972;28;20190;-66
2021/05/04 04:05:07;;;;;;;21.13;4.80;;;21.60;64.90;;;;;;5068269;28;20199;-66
2021/05/04 04:07:34;;;;;;;27.73;5.33;;;21.60;65.80;;;;;;5064264;28;20186;-67
2021/05/04 04:10:00;;;;;;;31.30;5.20;;;21.60;66.50;;;;;;5060041;28;20187;-67
2021/05/04 04:12:27;;;;;;;32.00;4.63;;;21.60;67.00;;;;;;5063688;28;20191;-66
2021/05/04 04:14:54;;;;;;;18.77;4.93;;;21.60;67.40;;;;;;5061999;28;20190;-67
2021/05/04 04:17:22;;;;;;;27.87;4.93;;;21.70;67.70;;;;;;5067379;28;20214;-67
2021/05/04 04:19:49;;;;;;;33.40;5.10;;;21.80;68.20;;;;;;5047891;28;20561;-67
2021/05/04 04:22:16;;;;;;;19.00;4.97;;;21.90;68.80;;;;;;5063919;28;20273;-66
2021/05/04 04:24:43;;;;;;;29.30;4.67;;;21.90;69.10;;;;;;5061766;28;20183;-68
2021/05/04 04:27:10;;;;;;;34.33;5.03;;;22.00;69.90;;;;;;5060895;28;20191;-66
2021/05/04 04:29:37;;;;;;;31.40;4.93;;;22.10;70.10;;;;;;5079353;28;20183;-67
2021/05/04 04:32:04;;;;;;;19.60;4.27;;;22.20;70.50;;;;;;5060922;28;20179;-66
2021/05/04 04:34:30;;;;;;;19.13;5.10;;;22.30;70.40;;;;;;5065723;28;20885;-66
2021/05/04 04:36:57;;;;;;;18.93;4.57;;;22.30;70.50;;;;;;5062046;28;20202;-68
2021/05/04 04:39:24;;;;;;;18.00;4.50;;;22.50;71.20;;;;;;5065675;28;20526;-68
2021/05/04 04:41:51;;;;;;;19.27;4.77;;;22.60;72.10;;;;;;5065556;28;20310;-67
2021/05/04 04:44:17;;;;;;;20.10;4.90;;;22.70;72.40;;;;;;5066751;28;20578;-67
2021/05/04 04:46:44;;;;;;;24.97;5.10;;;22.80;73.80;;;;;;5061525;28;20225;-67
2021/05/04 04:49:17;;;;;;;26.37;4.90;;;22.90;74.00;;;;;;5062148;28;20195;-66
2021/05/04 04:51:45;;;;;;;23.97;4.63;;;23.10;76.10;;;;;;5065556;28;20595;-67
2021/05/04 04:54:12;;;;;;;21.50;4.50;;;23.10;78.80;;;;;;5065602;28;20180;-67
2021/05/04 04:56:39;;;;;;;29.20;5.30;;;23.20;81.50;;;;;;5065698;28;20201;-67
2021/05/04 04:59:08;;;;;;;26.43;4.53;;;23.40;81.80;;;;;;5066436;28;20185;-67
2021/05/04 05:01:36;;;;;;;25.07;4.63;;;23.40;82.10;;;;;;5061568;28;20281;-67
2021/05/04 05:04:05;;;;;;;31.33;5.53;;;23.50;85.10;;;;;;5063242;28;20232;-67
2021/05/04 05:06:32;;;;;;;16.73;4.20;;;23.60;85.70;;;;;;5063389;28;20195;-66
2021/05/04 05:08:59;;;;;;;28.13;4.93;;;23.60;87.00;;;;;;5064115;28;20191;-66
2021/05/04 05:11:25;;;;;;;23.27;5.23;;;23.80;88.30;;;;;;5061355;28;20193;-67
2021/05/04 05:13:52;;;;;;;23.53;4.53;;;23.90;84.80;;;;;;5060103;28;20657;-67
2021/05/04 05:16:21;;;;;;;31.27;4.93;;;24.00;86.70;;;;;;5060083;28;20219;-65
2021/05/04 05:18:47;;;;;;;27.20;4.37;;;24.10;82.80;;;;;;5062793;28;20298;-68
2021/05/04 05:21:16;;;;;;;39.47;5.23;;;24.30;80.20;;;;;;5060911;28;20620;-67
2021/05/04 05:23:44;;;;;;;23.67;5.10;;;24.40;81.90;;;;;;5061508;28;20260;-63
2021/05/04 05:26:11;;;;;;;31.10;4.40;;;24.40;86.90;;;;;;5066168;28;20198;-66
2021/05/04 05:28:39;;;;;;;21.10;4.70;;;24.50;87.60;;;;;;5065756;28;20191;-68
2021/05/04 05:31:05;;;;;;;20.17;4.27;;;24.60;85.50;;;;;;5064976;28;20187;-69
2021/05/04 05:33:32;;;;;;;19.73;4.30;;;24.70;85.80;;;;;;5054329;28;20206;-66
2021/05/04 05:35:58;;;;;;;27.95;4.75;;;24.70;88.50;;;;;;5073064;28;20234;-66
2021/05/04 05:38:25;;;;;;;26.88;5.15;;;24.70;90.30;;;;;;5062900;28;20735;-70
2021/05/04 05:40:51;;;;;;;27.73;5.10;;;24.80;89.30;;;;;;5063128;28;20199;-69
2021/05/04 05:43:18;;;;;;;24.77;4.40;;;24.70;87.60;;;;;;5066224;28;20202;-69
2021/05/04 05:45:44;;;;;;;29.15;5.00;;;24.70;86.30;;;;;;5062688;28;20191;-69
2021/05/04 05:48:11;;;;;;;30.10;4.90;;;24.70;84.60;;;;;;5065724;28;20191;-68
2021/05/04 05:50:37;;;;;;;20.98;4.38;;;24.70;83.80;;;;;;5061191;28;20261;-69
2021/05/04 05:53:04;;;;;;;21.35;4.30;;;24.60;82.10;;;;;;5058322;28;20194;-71
2021/05/04 05:55:31;;;;;;;32.30;5.30;;;24.60;79.50;;;;;;5056697;28;20385;-69
2021/05/04 05:58:00;;;;;;;24.05;5.03;;;24.70;73.70;;;;;;5058773;28;20213;-70
2021/05/04 06:00:28;;;;;;;19.67;5.10;;;24.70;77.80;;;;;;5057303;28;20235;-68
2021/05/04 06:03:02;;;;;;;24.67;4.72;;;24.70;70.60;;;;;;5060025;28;20266;-69
2021/05/04 06:05:30;;;;;;;25.35;4.47;;;24.70;67.40;;;;;;5059097;28;20187;-68
2021/05/04 06:07:56;;;;;;;21.67;5.32;;;24.70;67.20;;;;;;5059924;28;20197;-70
2021/05/04 06:10:23;;;;;;;31.42;5.28;;;24.90;65.10;;;;;;5062978;28;20527;-71
2021/05/04 06:13:16;;;;;;;28.30;5.00;;;25.00;65.70;;;;;;5059612;28;20540;-69
2021/05/04 06:15:43;;;;;;;27.83;6.20;;;24.90;68.30;;;;;;5057602;28;20200;-69
2021/05/04 06:18:11;;;;;;;27.27;5.13;;;24.90;68.20;;;;;;5063105;28;20238;-68
2021/05/04 06:20:38;;;;;;;24.77;4.93;;;24.90;66.60;;;;;;5055376;28;20235;-67
2021/05/04 06:23:07;;;;;;;28.55;5.15;;;24.90;65.20;;;;;;5060774;28;20643;-70
2021/05/04 06:25:34;;;;;;;31.50;4.90;;;24.90;66.70;;;;;;5061048;28;20190;-69
2021/05/04 06:28:07;;;;;;;23.77;6.15;;;25.00;64.50;;;;;;5044725;28;20191;-67
2021/05/04 06:30:36;;;;;;;21.70;5.22;;;25.10;63.60;;;;;;5055926;28;20690;-70
2021/05/04 06:33:10;;;;;;;40.30;6.07;;;25.20;61.60;;;;;;5062312;28;20275;-68
2021/05/04 06:35:41;;;;;;;24.83;5.25;;;25.40;63.20;;;;;;5060529;28;20198;-66
2021/05/04 06:38:13;;;;;;;25.73;5.05;;;25.60;61.20;;;;;;5060234;28;20336;-69
2021/05/04 06:40:41;;;;;;;30.70;5.60;;;25.70;59.10;;;;;;5061304;28;20186;-68
2021/05/04 06:43:10;;;;;;;31.73;6.28;;;25.80;59.70;;;;;;5062438;28;20188;-66
2021/05/04 06:45:37;;;;;;;35.05;5.40;;;25.90;57.10;;;;;;5060427;28;20213;-66
2021/05/04 06:48:04;;;;;;;31.45;5.80;;;26.20;59.50;;;;;;5060498;28;20183;-66
2021/05/04 06:50:31;;;;;;;29.38;5.90;;;26.40;58.70;;;;;;5061345;28;20195;-70
2021/05/04 06:52:58;;;;;;;27.88;5.35;;;26.90;57.90;;;;;;5059063;28;20192;-69
2021/05/04 06:55:24;;;;;;;29.85;5.43;;;26.70;58.90;;;;;;5059346;28;20185;-66
2021/05/04 06:57:51;;;;;;;36.85;6.38;;;26.80;59.90;;;;;;5061100;28;20582;-65
2021/05/04 07:00:20;;;;;;;33.67;6.00;;;27.40;63.10;;;;;;5060195;28;20187;-65
2021/05/04 07:02:47;;;;;;;33.85;5.13;;;27.20;65.50;;;;;;5066530;28;20179;-65
2021/05/04 07:05:15;;;;;;;32.47;5.75;;;27.10;64.20;;;;;;5060248;28;20191;-64
2021/05/04 07:07:41;;;;;;;25.15;5.88;;;27.20;74.10;;;;;;5061645;28;20198;-65
2021/05/04 07:10:09;;;;;;;25.20;5.45;;;27.10;74.80;;;;;;5056274;28;20218;-65
2021/05/04 07:12:35;;;;;;;23.38;4.82;;;27.20;69.80;;;;;;5059333;28;20186;-69
2021/05/04 07:15:04;;;;;;;29.23;5.38;;;27.30;71.80;;;;;;5063689;28;20193;-66
2021/05/04 07:17:31;;;;;;;28.63;5.85;;;27.20;83.40;;;;;;5054514;28;20678;-65
2021/05/04 07:19:57;;;;;;;25.13;5.60;;;27.10;90.30;;;;;;5052287;28;20186;-66
2021/05/04 07:22:28;;;;;;;24.00;5.13;;;26.90;90.70;;;;;;5059449;28;20193;-65
2021/05/04 07:24:56;;;;;;;30.45;5.85;;;26.90;92.00;;;;;;5056441;28;20624;-64
2021/05/04 07:27:23;;;;;;;24.58;5.70;;;26.90;92.40;;;;;;5057317;28;20910;-66
2021/05/04 07:29:51;;;;;;;21.40;4.80;;;26.80;92.40;;;;;;5058571;28;20693;-65
2021/05/04 07:32:18;;;;;;;24.13;5.60;;;26.90;92.60;;;;;;5057681;28;20183;-65
2021/05/04 07:34:47;;;;;;;22.90;5.80;;;26.80;92.50;;;;;;5057414;28;20194;-66
2021/05/04 07:37:16;;;;;;;21.33;5.28;;;26.90;92.00;;;;;;5060298;28;21858;-65
2021/05/04 07:39:44;;;;;;;20.83;5.03;;;27.00;91.00;;;;;;5060350;28;20189;-65
2021/05/04 07:42:12;;;;;;;25.27;5.15;;;27.10;88.30;;;;;;5062757;28;20273;-65
2021/05/04 07:44:39;;;;;;;28.42;5.63;;;27.20;90.40;;;;;;5060703;28;20563;-64
2021/05/04 07:47:06;;;;;;;21.33;4.78;;;27.50;89.10;;;;;;5058152;28;20196;-64
2021/05/04 07:49:36;;;;;;;35.05;5.50;;;27.70;90.20;;;;;;5060369;28;20182;-65
2021/05/04 07:52:04;;;;;;;25.17;5.10;;;27.60;90.40;;;;;;5059136;28;20202;-65
2021/05/04 07:54:31;;;;;;;22.65;5.03;;;27.60;87.90;;;;;;5057502;28;20197;-66
2021/05/04 07:56:58;;;;;;;34.03;5.38;;;27.60;86.40;;;;;;5057368;28;20191;-65
2021/05/04 07:59:24;;;;;;;24.77;4.97;;;27.80;84.30;;;;;;5056590;28;20190;-64
2021/05/04 08:01:51;;;;;;;32.42;6.20;;;28.00;83.20;;;;;;5057808;28;20184;-65
2021/05/04 08:04:17;;;;;;;20.75;5.10;;;28.50;72.30;;;;;;5055154;28;20187;-65
2021/05/04 08:06:44;;;;;;;27.45;5.30;;;28.60;75.50;;;;;;5058640;28;20175;-65
2021/05/04 08:09:13;;;;;;;22.45;5.30;;;28.60;76.30;;;;;;5061609;28;20263;-65
2021/05/04 08:11:41;;;;;;;29.13;5.50;;;28.50;76.40;;;;;;5059143;28;20183;-65
2021/05/04 08:14:08;;;;;;;30.67;5.40;;;28.40;76.90;;;;;;5063425;28;20198;-66
2021/05/04 08:16:35;;;;;;;22.25;5.00;;;28.50;77.20;;;;;;5058677;28;20218;-65
2021/05/04 08:19:04;;;;;;;22.45;4.90;;;28.50;72.60;;;;;;5063032;28;20234;-65
2021/05/04 08:21:34;;;;;;;27.15;5.32;;;28.70;72.30;;;;;;5044949;28;20848;-66
2021/05/04 08:24:06;;;;;;;24.83;5.43;;;28.80;74.80;;;;;;5059967;28;20235;-67
2021/05/04 08:26:33;;;;;;;21.92;5.40;;;29.00;73.20;;;;;;5060741;28;20191;-64
2021/05/04 08:29:01;;;;;;;22.63;5.47;;;29.10;72.30;;;;;;5066118;28;20203;-65
2021/05/04 08:31:28;;;;;;;31.77;5.43;;;29.10;74.90;;;;;;5063020;28;20182;-67
2021/05/04 08:33:55;;;;;;;26.95;6.20;;;29.10;71.80;;;;;;5045461;28;20198;-67
2021/05/04 08:36:23;;;;;;;34.53;6.00;;;29.30;71.80;;;;;;5063016;28;20214;-69
2021/05/04 08:38:50;;;;;;;35.30;5.95;;;29.60;70.30;;;;;;5064823;28;20210;-66
2021/05/04 08:41:17;;;;;;;30.30;6.28;;;29.70;71.60;;;;;;5064801;28;20187;-68
2021/05/04 08:43:53;;;;;;;32.33;6.22;;;29.90;70.70;;;;;;5059776;28;20602;-67
2021/05/04 08:46:22;;;;;;;25.65;7.18;;;30.10;67.70;;;;;;5062033;28;20216;-66
2021/05/04 08:48:55;;;;;;;37.53;7.10;;;30.10;66.00;;;;;;5065920;28;20198;-65
2021/05/04 08:51:22;;;;;;;36.58;6.68;;;30.00;67.80;;;;;;5061440;28;20284;-65
2021/05/04 08:53:49;;;;;;;35.55;6.40;;;30.30;66.40;;;;;;5076109;28;20186;-66
2021/05/04 08:56:15;;;;;;;31.10;5.80;;;30.40;61.00;;;;;;5061178;28;20218;-65
2021/05/04 08:58:43;;;;;;;32.92;5.95;;;30.50;64.40;;;;;;5078337;28;20222;-65
2021/05/04 09:01:09;;;;;;;27.83;5.75;;;30.50;64.80;;;;;;5060765;28;20187;-67
2021/05/04 09:03:43;;;;;;;28.45;6.07;;;30.70;69.90;;;;;;5063789;28;20249;-68
2021/05/04 09:06:17;;;;;;;27.80;5.55;;;30.80;71.40;;;;;;5061900;28;20214;-68
2021/05/04 09:09:08;;;;;;;29.63;5.85;;;30.80;67.70;;;;;;5057701;28;20184;-67
2021/05/04 09:11:57;;;;;;;25.90;6.40;;;30.80;66.60;;;;;;5059412;28;20289;-67
2021/05/04 09:14:48;;;;;;;28.52;6.10;;;31.00;68.10;;;;;;5061812;28;20199;-66
2021/05/04 09:17:22;;;;;;;33.83;6.20;;;31.10;70.10;;;;;;5062690;28;20214;-67
2021/05/04 09:21:00;;;;;;;44.30;6.90;;;31.10;65.10;;;;;;5063540;28;20303;-65
2021/05/04 09:23:08;;;;;;;36.58;6.68;;;31.20;60.30;;;;;;5063029;28;20199;-67
2021/05/04 09:25:47;;;;;;;31.23;6.78;;;31.60;58.60;;;;;;5043845;28;20235;-66
2021/05/04 09:28:15;;;;;;;41.13;7.35;;;31.50;55.60;;;;;;5060317;28;20187;-70
2021/05/04 09:30:54;;;;;;;49.08;7.10;;;31.60;57.00;;;;;;5055284;28;20190;-67
2021/05/04 09:33:22;;;;;;;47.17;7.38;;;31.70;57.40;;;;;;5059424;28;20198;-68
2021/05/04 09:35:49;;;;;;;51.00;7.85;;;32.00;50.60;;;;;;5058360;28;20219;-68
2021/05/04 09:38:21;;;;;;;30.02;6.28;;;31.80;50.70;;;;;;5059318;28;20277;-67
2021/05/04 09:40:48;;;;;;;43.70;6.32;;;31.80;51.80;;;;;;5058253;28;20178;-65
2021/05/04 09:43:23;;;;;;;36.58;7.25;;;31.70;52.30;;;;;;5059425;28;20222;-67
2021/05/04 09:45:58;;;;;;;53.00;7.63;;;31.40;48.50;;;;;;5060012;28;20205;-67
2021/05/04 09:48:34;;;;;;;43.28;7.40;;;31.20;50.20;;;;;;5059597;28;20204;-69
2021/05/04 09:51:19;;;;;;;40.45;7.20;;;31.10;51.10;;;;;;5058602;28;20202;-68
2021/05/04 09:56:36;;;;;;;30.10;5.80;;;30.80;52.30;;;;;;5062758;28;20194;-68
2021/05/04 09:59:05;;;;;;;37.92;6.15;;;30.80;56.40;;;;;;5059666;28;20214;-68
2021/05/04 10:01:32;;;;;;;28.88;6.22;;;30.70;60.30;;;;;;5066307;28;20200;-68
2021/05/04 10:04:01;;;;;;;31.02;6.40;;;30.50;61.80;;;;;;5062461;28;20642;-67
2021/05/04 10:06:28;;;;;;;37.05;6.63;;;30.20;61.80;;;;;;5060152;28;20324;-66
2021/05/04 10:08:56;;;;;;;30.80;6.28;;;30.30;63.00;;;;;;5061621;28;20186;-67
2021/05/04 10:11:23;;;;;;;27.35;6.40;;;30.10;62.10;;;;;;5063486;28;20197;-66
2021/05/04 10:13:58;;;;;;;48.90;6.95;;;30.10;62.30;;;;;;5060914;28;20241;-67
2021/05/04 10:16:31;;;;;;;33.55;5.68;;;30.10;64.20;;;;;;5061919;28;20216;-66
2021/05/04 10:19:05;;;;;;;37.00;6.10;;;30.20;64.50;;;;;;5060641;28;20210;-67
2021/05/04 10:21:34;;;;;;;36.97;6.35;;;30.10;63.50;;;;;;5061589;28;20255;-68
2021/05/04 10:24:01;;;;;;;30.15;5.88;;;29.90;65.40;;;;;;5056249;28;20579;-69
2021/05/04 10:26:33;;;;;;;22.35;5.80;;;29.70;64.30;;;;;;5059774;28;20197;-66
2021/05/04 10:29:05;;;;;;;32.28;6.07;;;29.70;66.60;;;;;;5045716;28;20198;-67
2021/05/04 10:31:46;;;;;;;40.45;6.50;;;30.00;61.80;;;;;;5062574;28;20202;-67
2021/05/04 10:34:31;;;;;;;32.10;6.00;;;30.20;59.10;;;;;;5061784;28;20206;-68
2021/05/04 10:37:22;;;;;;;38.28;6.43;;;30.10;54.70;;;;;;5056920;28;21249;-67
2021/05/04 10:39:52;;;;;;;40.22;7.35;;;30.30;51.90;;;;;;5054896;28;20282;-68
2021/05/04 10:42:37;;;;;;;44.25;6.32;;;30.30;53.80;;;;;;5058836;28;20223;-69
2021/05/04 10:45:03;;;;;;;40.83;6.30;;;30.60;52.50;;;;;;5062282;28;20577;-69
2021/05/04 10:47:42;;;;;;;31.02;6.38;;;30.70;52.70;;;;;;5058733;28;20885;-67
2021/05/04 10:50:56;;;;;;;34.88;6.72;;;30.90;53.10;;;;;;5063501;28;20524;-66
2021/05/04 10:53:25;;;;;;;38.55;6.35;;;31.00;52.10;;;;;;5072607;28;20209;-69
2021/05/04 10:55:56;;;;;;;41.30;7.22;;;31.00;52.30;;;;;;5070814;28;20277;-67
2021/05/04 10:58:26;;;;;;;41.85;6.65;;;30.90;51.50;;;;;;5061357;28;20234;-65
2021/05/04 11:00:58;;;;;;;35.90;5.82;;;31.00;53.50;;;;;;5070505;28;20184;-66
2021/05/04 11:03:34;;;;;;;38.38;6.10;;;30.90;53.80;;;;;;5075195;28;20191;-65
2021/05/04 11:06:07;;;;;;;40.53;6.68;;;31.00;56.20;;;;;;5070157;28;20694;-69
2021/05/04 11:08:43;;;;;;;46.28;6.72;;;31.10;61.70;;;;;;5058367;28;20648;-65
2021/05/04 11:11:24;;;;;;;40.20;5.88;;;31.10;59.90;;;;;;5058466;28;20266;-67
2021/05/04 11:14:04;;;;;;;40.67;6.38;;;30.90;60.00;;;;;;5061319;28;20187;-65
2021/05/04 11:16:46;;;;;;;39.75;7.35;;;30.90;61.00;;;;;;5063424;28;20856;-67
2021/05/04 11:19:28;;;;;;;41.80;5.95;;;31.00;59.10;;;;;;5060986;28;20222;-67
2021/05/04 11:22:05;;;;;;;40.10;6.10;;;31.00;58.10;;;;;;5055379;28;20207;-66
2021/05/04 11:24:32;;;;;;;32.92;6.28;;;31.10;58.40;;;;;;5059885;28;20186;-67
2021/05/04 11:27:18;;;;;;;37.33;5.82;;;31.00;56.70;;;;;;5060832;28;20583;-66
2021/05/04 11:29:49;;;;;;;39.15;6.95;;;31.00;55.40;;;;;;5064735;28;20210;-68
2021/05/04 11:32:41;;;;;;;36.67;6.20;;;30.90;55.90;;;;;;5077236;28;20522;-67
2021/05/04 11:35:09;;;;;;;35.13;6.45;;;30.70;55.90;;;;;;5059853;28;20226;-67
2021/05/04 11:37:39;;;;;;;38.75;6.70;;;30.50;55.70;;;;;;5056016;28;20239;-66
2021/05/04 11:40:27;;;;;;;36.28;6.30;;;30.50;54.60;;;;;;5054955;28;20203;-66
2021/05/04 11:43:02;;;;;;;34.67;6.03;;;30.40;56.30;;;;;;5041031;28;20594;-66
2021/05/04 11:45:33;;;;;;;41.67;6.32;;;30.20;54.70;;;;;;5077889;28;20828;-67
2021/05/04 11:48:08;;;;;;;30.65;6.38;;;30.30;54.40;;;;;;5061563;28;20272;-67
2021/05/04 11:50:54;;;;;;;35.10;6.30;;;30.40;54.10;;;;;;5061725;28;20583;-68
2021/05/04 11:53:21;;;;;;;39.55;6.65;;;30.40;53.90;;;;;;5047047;28;20206;-65
2021/05/04 11:55:54;;;;;;;38.22;7.00;;;30.30;55.90;;;;;;5062971;28;20317;-68
2021/05/04 11:58:28;;;;;;;42.38;7.50;;;30.20;54.80;;;;;;5062829;28;20678;-70
2021/05/04 12:01:07;;;;;;;36.83;6.65;;;30.00;54.10;;;;;;5039953;28;20179;-69
2021/05/04 12:03:34;;;;;;;40.65;6.60;;;30.10;53.30;;;;;;5049191;28;20199;-68
2021/05/04 12:06:03;;;;;;;51.92;7.72;;;30.00;54.60;;;;;;5059116;28;20225;-66
2021/05/04 12:08:31;;;;;;;35.35;7.22;;;30.10;53.80;;;;;;5040566;28;20377;-69
2021/05/04 12:10:58;;;;;;;40.72;7.10;;;30.10;53.10;;;;;;5044554;28;20187;-69
2021/05/04 12:13:27;;;;;;;50.20;7.35;;;29.90;56.20;;;;;;5045291;28;20713;-66
2021/05/04 12:16:00;;;;;;;29.33;6.60;;;29.90;55.60;;;;;;5064047;28;20186;-69
2021/05/04 12:18:32;;;;;;;41.83;7.80;;;29.60;54.70;;;;;;5045148;28;20304;-68
2021/05/04 12:21:08;;;;;;;30.48;5.82;;;29.70;53.80;;;;;;5060416;28;20186;-66
2021/05/04 12:23:43;;;;;;;37.03;6.82;;;29.50;56.10;;;;;;5041633;28;20195;-67
2021/05/04 12:26:20;;;;;;;34.45;6.47;;;29.50;56.10;;;;;;5064970;28;20737;-67
2021/05/04 12:28:54;;;;;;;54.40;7.93;;;29.20;58.40;;;;;;5064215;28;20273;-67
2021/05/04 12:31:40;;;;;;;38.33;6.40;;;29.40;54.80;;;;;;5060439;28;20872;-67
2021/05/04 12:34:07;;;;;;;37.53;6.78;;;29.30;54.20;;;;;;5046139;28;20659;-67
2021/05/04 12:36:50;;;;;;;58.65;7.15;;;29.30;54.10;;;;;;5069371;28;20214;-68
2021/05/04 12:39:33;;;;;;;50.05;7.95;;;29.10;54.50;;;;;;5061557;28;20221;-68
2021/05/04 12:42:20;;;;;;;31.48;6.22;;;29.00;55.20;;;;;;5061791;28;20190;-69
2021/05/04 12:44:47;;;;;;;43.40;7.93;;;29.00;50.20;;;;;;5061648;28;20538;-68
2021/05/04 12:47:16;;;;;;;34.42;6.70;;;28.90;52.80;;;;;;5063968;28;20272;-68
2021/05/04 12:49:45;;;;;;;31.42;6.78;;;28.80;56.30;;;;;;5060420;28;20644;-67
2021/05/04 12:52:15;;;;;;;45.92;7.85;;;29.00;53.60;;;;;;5058165;28;20210;-68